Full Flight | AF032 Paris Orly to New York JFK | Takeoff on RWY 20




Flight | AF032 Paris Orly to New York JFK | Takeoff on RWY 20

Key Moments of The Flight :

Engine 2 Start : 2:03
Engine 1 Start : 3:27
Takeoff on Runway 20 (Very Rare !) : 18:05
Soaring The Clouds : 24:11
A Plane ! : 28:42
Horizontal Stabilizer : 28:53 and 29:21
Final Approach & Wing Condensation : 36:20
Landing : 41:00
Air France A330 F-GZCJ : 53:22

About The Flight...

LFPO METAR :

LFPO 250900Z 34004KT 290V020 9999 FEW046 BKN080 24/17 Q1021 NOSIG

KJFK METAR :

KJFK 251651Z 19010KT 10SM FEW026 FEW180 SCT250 29/22
A2992 RMK AO2 SLP130 T02890222

Flight : AF032/AF0032
Origin : Paris Orly Airport ORY/LFPO Gate 31
Takeoff Runway : 20
Destination : New York John Fitzgerald Kennedy Int'l Airport JFK/KJFK
Landing Runway : 22L
Date : July 25th 2016
Local Time Departure : 11:23 AM
Local Time Arrival : 1:10 PM
Flight Duration : 7h32
Takeoff Flaps : 20

Aircraft : Boeing 777-228ER 309 seats J-W-Y without new cabins (It may have changed)
Engine Type : GE90-94B
Registration : F-GSPB
Cruising Speed : M.83
Classes : Business, Premium Economy, Economy

Seat : 41A Economy

Flight Plan (Flightaware) : http://imgur.com/a/4P7yY

Flight Plan Graph (Flightaware) : http://imgur.com/a/yqslP

Recorded with an iPhone 6

Copyright ©

Flights

Air Charter
#<LinkAnchor:0x00000009b1cf98>

This entry was posted in Trade Flights Australia and tagged , , , , , , , , , , , , , , , , , , , , , , , , , , , . Bookmark the permalink.